sensor_id;sensor_type;location;lat;lon;timestamp;temperature;humidity
33149;DHT22;19506;51.040;3.856;2023-06-14T14:35:10;23.50;99.90
33149;DHT22;19506;51.040;3.856;2023-06-14T14:37:36;23.60;99.90
33149;DHT22;19506;51.040;3.856;2023-06-14T14:40:02;23.60;99.90
33149;DHT22;19506;51.040;3.856;2023-06-14T14:42:29;23.70;99.90
33149;DHT22;19506;51.040;3.856;2023-06-14T14:44:54;23.80;99.90
33149;DHT22;19506;51.040;3.856;2023-06-14T14:47:20;24.00;99.90
33149;DHT22;19506;51.040;3.856;2023-06-14T14:49:46;24.10;99.90
33149;DHT22;19506;51.040;3.856;2023-06-14T14:52:11;24.10;99.90
33149;DHT22;19506;51.040;3.856;2023-06-14T14:54:38;24.10;99.90
33149;DHT22;19506;51.040;3.856;2023-06-14T14:57:04;24.10;99.90
33149;DHT22;19506;51.040;3.856;2023-06-14T14:59:30;24.10;99.90
33149;DHT22;19506;51.040;3.856;2023-06-14T15:01:56;24.10;99.90
33149;DHT22;19506;51.040;3.856;2023-06-14T15:04:21;24.20;99.90
33149;DHT22;19506;51.040;3.856;2023-06-14T15:06:47;24.20;99.90
33149;DHT22;19506;51.040;3.856;2023-06-14T15:09:13;24.20;99.90
33149;DHT22;19506;51.040;3.856;2023-06-14T15:11:38;24.20;99.90
33149;DHT22;19506;51.040;3.856;2023-06-14T15:14:04;24.20;99.90
33149;DHT22;19506;51.040;3.856;2023-06-14T15:16:30;24.40;99.90
33149;DHT22;19506;51.040;3.856;2023-06-14T15:18:55;24.70;99.90
33149;DHT22;19506;51.040;3.856;2023-06-14T15:21:21;24.70;99.90
33149;DHT22;19506;51.040;3.856;2023-06-14T15:23:47;24.50;99.90
33149;DHT22;19506;51.040;3.856;2023-06-14T15:26:13;24.40;99.90
33149;DHT22;19506;51.040;3.856;2023-06-14T15:28:39;24.40;99.90
33149;DHT22;19506;51.040;3.856;2023-06-14T15:31:05;24.40;99.90
33149;DHT22;19506;51.040;3.856;2023-06-14T15:33:30;24.40;99.90
33149;DHT22;19506;51.040;3.856;2023-06-14T15:35:57;24.40;99.90
33149;DHT22;19506;51.040;3.856;2023-06-14T15:38:22;24.40;99.90
33149;DHT22;19506;51.040;3.856;2023-06-14T15:40:48;24.60;99.90
33149;DHT22;19506;51.040;3.856;2023-06-14T15:43:14;24.70;99.90
33149;DHT22;19506;51.040;3.856;2023-06-14T15:45:40;25.00;99.90
33149;DHT22;19506;51.040;3.856;2023-06-14T15:48:06;25.00;99.70
33149;DHT22;19506;51.040;3.856;2023-06-14T15:50:31;25.00;99.50
33149;DHT22;19506;51.040;3.856;2023-06-14T15:52:57;24.80;99.60
33149;DHT22;19506;51.040;3.856;2023-06-14T15:55:23;24.80;99.80
33149;DHT22;19506;51.040;3.856;2023-06-14T15:57:48;24.60;99.90
33149;DHT22;19506;51.040;3.856;2023-06-14T16:00:15;24.60;99.90
33149;DHT22;19506;51.040;3.856;2023-06-14T16:02:40;24.60;99.90
33149;DHT22;19506;51.040;3.856;2023-06-14T16:05:06;24.60;99.90
33149;DHT22;19506;51.040;3.856;2023-06-14T16:07:32;24.60;99.90
33149;DHT22;19506;51.040;3.856;2023-06-14T16:09:58;24.60;99.90
33149;DHT22;19506;51.040;3.856;2023-06-14T16:12:23;24.70;99.90
33149;DHT22;19506;51.040;3.856;2023-06-14T16:14:49;24.60;99.90
33149;DHT22;19506;51.040;3.856;2023-06-14T16:17:15;24.60;99.90
33149;DHT22;19506;51.040;3.856;2023-06-14T16:19:41;24.70;99.90
33149;DHT22;19506;51.040;3.856;2023-06-14T16:22:06;24.70;99.90
33149;DHT22;19506;51.040;3.856;2023-06-14T16:24:32;24.70;99.90
33149;DHT22;19506;51.040;3.856;2023-06-14T16:26:58;24.60;99.90
33149;DHT22;19506;51.040;3.856;2023-06-14T16:29:24;24.50;99.90
33149;DHT22;19506;51.040;3.856;2023-06-14T16:31:49;24.40;99.90
33149;DHT22;19506;51.040;3.856;2023-06-14T16:34:15;24.40;99.90
33149;DHT22;19506;51.040;3.856;2023-06-14T16:36:43;24.40;99.90
33149;DHT22;19506;51.040;3.856;2023-06-14T16:39:08;24.40;99.90
33149;DHT22;19506;51.040;3.856;2023-06-14T16:41:34;24.30;99.90
33149;DHT22;19506;51.040;3.856;2023-06-14T16:43:59;24.30;99.90
33149;DHT22;19506;51.040;3.856;2023-06-14T16:46:33;24.30;99.90
33149;DHT22;19506;51.040;3.856;2023-06-14T16:48:59;24.30;99.90
33149;DHT22;19506;51.040;3.856;2023-06-14T16:51:25;24.20;99.90
33149;DHT22;19506;51.040;3.856;2023-06-14T16:53:51;24.30;99.90
33149;DHT22;19506;51.040;3.856;2023-06-14T16:56:21;24.30;99.90
33149;DHT22;19506;51.040;3.856;2023-06-14T16:58:52;24.50;99.90
33149;DHT22;19506;51.040;3.856;2023-06-14T17:01:18;24.70;99.90
33149;DHT22;19506;51.040;3.856;2023-06-14T17:03:44;24.70;99.90
33149;DHT22;19506;51.040;3.856;2023-06-14T17:06:09;24.90;99.90
33149;DHT22;19506;51.040;3.856;2023-06-14T17:08:35;24.80;99.90
33149;DHT22;19506;51.040;3.856;2023-06-14T17:11:01;24.90;99.90
33149;DHT22;19506;51.040;3.856;2023-06-14T17:13:26;24.90;99.90
33149;DHT22;19506;51.040;3.856;2023-06-14T17:15:52;24.90;99.90
33149;DHT22;19506;51.040;3.856;2023-06-14T17:18:18;25.00;99.90
33149;DHT22;19506;51.040;3.856;2023-06-14T17:20:43;25.10;99.90
33149;DHT22;19506;51.040;3.856;2023-06-14T17:23:09;25.10;99.90
33149;DHT22;19506;51.040;3.856;2023-06-14T17:25:36;25.20;99.90
33149;DHT22;19506;51.040;3.856;2023-06-14T17:28:02;25.10;99.90
33149;DHT22;19506;51.040;3.856;2023-06-14T17:30:29;25.20;99.90
33149;DHT22;19506;51.040;3.856;2023-06-14T17:32:55;25.00;99.90
33149;DHT22;19506;51.040;3.856;2023-06-14T17:35:22;25.10;99.90
33149;DHT22;19506;51.040;3.856;2023-06-14T17:37:48;25.00;99.90
33149;DHT22;19506;51.040;3.856;2023-06-14T17:40:13;25.20;99.90
33149;DHT22;19506;51.040;3.856;2023-06-14T17:42:39;25.50;99.70
33149;DHT22;19506;51.040;3.856;2023-06-14T17:45:05;25.60;99.40
33149;DHT22;19506;51.040;3.856;2023-06-14T17:47:31;25.50;99.50
33149;DHT22;19506;51.040;3.856;2023-06-14T17:49:57;25.50;99.50
33149;DHT22;19506;51.040;3.856;2023-06-14T17:52:23;25.50;99.70
33149;DHT22;19506;51.040;3.856;2023-06-14T17:54:49;25.30;99.50
33149;DHT22;19506;51.040;3.856;2023-06-14T17:57:15;25.30;99.70
33149;DHT22;19506;51.040;3.856;2023-06-14T17:59:41;25.30;99.00
33149;DHT22;19506;51.040;3.856;2023-06-14T18:02:07;25.40;98.30
33149;DHT22;19506;51.040;3.856;2023-06-14T18:04:33;25.30;98.00
33149;DHT22;19506;51.040;3.856;2023-06-14T18:06:59;25.30;97.60
33149;DHT22;19506;51.040;3.856;2023-06-14T18:09:26;25.30;97.10
33149;DHT22;19506;51.040;3.856;2023-06-14T18:11:55;25.20;97.10
33149;DHT22;19506;51.040;3.856;2023-06-14T18:14:24;25.20;96.70
33149;DHT22;19506;51.040;3.856;2023-06-14T18:16:50;25.30;96.90
33149;DHT22;19506;51.040;3.856;2023-06-14T18:19:16;25.30;97.30
33149;DHT22;19506;51.040;3.856;2023-06-14T18:21:46;25.40;97.40
33149;DHT22;19506;51.040;3.856;2023-06-14T18:24:13;25.50;97.40
33149;DHT22;19506;51.040;3.856;2023-06-14T18:26:38;25.50;97.70
33149;DHT22;19506;51.040;3.856;2023-06-14T18:29:04;25.40;97.80
33149;DHT22;19506;51.040;3.856;2023-06-14T18:31:30;25.50;98.00
33149;DHT22;19506;51.040;3.856;2023-06-14T18:33:56;25.60;97.60
33149;DHT22;19506;51.040;3.856;2023-06-14T18:36:23;25.70;97.50
33149;DHT22;19506;51.040;3.856;2023-06-14T18:38:48;25.70;97.30
33149;DHT22;19506;51.040;3.856;2023-06-14T18:41:14;25.80;97.60
33149;DHT22;19506;51.040;3.856;2023-06-14T18:43:40;25.70;97.20
33149;DHT22;19506;51.040;3.856;2023-06-14T18:46:05;25.70;97.20
33149;DHT22;19506;51.040;3.856;2023-06-14T18:48:31;25.70;97.30
33149;DHT22;19506;51.040;3.856;2023-06-14T18:50:57;25.50;97.50
33149;DHT22;19506;51.040;3.856;2023-06-14T18:53:22;25.50;97.60
33149;DHT22;19506;51.040;3.856;2023-06-14T18:55:48;25.50;97.80
33149;DHT22;19506;51.040;3.856;2023-06-14T18:58:15;25.60;97.80
33149;DHT22;19506;51.040;3.856;2023-06-14T19:00:41;25.70;97.80
33149;DHT22;19506;51.040;3.856;2023-06-14T19:03:07;25.70;97.70
33149;DHT22;19506;51.040;3.856;2023-06-14T19:05:33;25.70;97.80
33149;DHT22;19506;51.040;3.856;2023-06-14T19:07:59;25.70;97.80
33149;DHT22;19506;51.040;3.856;2023-06-14T19:10:24;25.70;97.90
33149;DHT22;19506;51.040;3.856;2023-06-14T19:12:50;25.50;98.50
33149;DHT22;19506;51.040;3.856;2023-06-14T19:15:16;25.40;98.70
33149;DHT22;19506;51.040;3.856;2023-06-14T19:17:41;25.50;99.20
33149;DHT22;19506;51.040;3.856;2023-06-14T19:20:07;25.50;99.40
33149;DHT22;19506;51.040;3.856;2023-06-14T19:22:33;25.30;99.70
33149;DHT22;19506;51.040;3.856;2023-06-14T19:24:59;25.40;99.90
33149;DHT22;19506;51.040;3.856;2023-06-14T19:27:25;25.20;99.90
33149;DHT22;19506;51.040;3.856;2023-06-14T19:29:51;25.10;99.90
33149;DHT22;19506;51.040;3.856;2023-06-14T19:32:17;25.30;99.90
33149;DHT22;19506;51.040;3.856;2023-06-14T19:34:42;25.60;99.50
33149;DHT22;19506;51.040;3.856;2023-06-14T19:37:11;25.70;99.40
33149;DHT22;19506;51.040;3.856;2023-06-14T19:39:37;25.70;99.20
33149;DHT22;19506;51.040;3.856;2023-06-14T19:42:03;25.80;99.30
33149;DHT22;19506;51.040;3.856;2023-06-14T19:44:29;25.80;99.60
33149;DHT22;19506;51.040;3.856;2023-06-14T19:46:54;25.80;99.40
33149;DHT22;19506;51.040;3.856;2023-06-14T19:49:20;25.80;99.30
33149;DHT22;19506;51.040;3.856;2023-06-14T19:51:46;25.80;99.30
33149;DHT22;19506;51.040;3.856;2023-06-14T19:54:11;25.80;99.20
33149;DHT22;19506;51.040;3.856;2023-06-14T19:56:37;25.80;99.10
33149;DHT22;19506;51.040;3.856;2023-06-14T19:59:03;25.80;99.00
33149;DHT22;19506;51.040;3.856;2023-06-14T20:01:28;25.90;98.90
33149;DHT22;19506;51.040;3.856;2023-06-14T20:03:54;25.80;98.80
33149;DHT22;19506;51.040;3.856;2023-06-14T20:06:20;25.80;98.70
33149;DHT22;19506;51.040;3.856;2023-06-14T20:08:46;25.90;98.50
33149;DHT22;19506;51.040;3.856;2023-06-14T20:11:12;25.90;98.40
33149;DHT22;19506;51.040;3.856;2023-06-14T20:13:38;25.80;98.50
33149;DHT22;19506;51.040;3.856;2023-06-14T20:16:04;25.80;98.40
33149;DHT22;19506;51.040;3.856;2023-06-14T20:18:31;25.80;98.40
